WetterOnline ( https://www.wetteronline.ch )

Wetter aktuell Regen

Aktuelles Wetter: Zwiesel (613m)

6-stündlich | Neueste Meldungen
Ortszeit Temperatur Wetter
Fr, 06.12. 7:00 -6.5° C bedeckt
Fr, 06.12. 1:00 -5.1° C Nebel
Do, 05.12. 19:00 -2.7° C wolkenlos
Do, 05.12. 13:00 2.2° C -
Do, 05.12. 7:00 -6.6° C wolkenlos
Do, 05.12. 1:00 -4.4° C leicht bewölkt
Mi, 04.12. 19:00 -1.9° C wolkenlos
Mi, 04.12. 13:00 4.9° C wolkenlos
Ortszeit Temperatur Wetter
Fr, 06.12. 10:30 -5.1° C leicht bewölkt
Fr, 06.12. 10:20 -5.1° C leicht bewölkt
Fr, 06.12. 10:10 -5.1° C leicht bewölkt
Fr, 06.12. 10:00 -6.0° C wolkig
Fr, 06.12. 9:50 -6.0° C wolkig
Fr, 06.12. 9:40 -6.1° C bedeckt
Fr, 06.12. 9:30 -6.3° C bedeckt
Fr, 06.12. 9:00 -6.4° C Schneegriesel
Fr, 06.12. 8:30 -6.6° C bedeckt
Fr, 06.12. 8:00 -6.4° C bedeckt
Fr, 06.12. 7:30 -6.7° C bedeckt
Ortszeit Relative Feuchte Sichtweite
Fr, 06.12. 7:00 92% 4.9 km
Fr, 06.12. 1:00 94% 0.2 km
Do, 05.12. 19:00 91% 8 km
Do, 05.12. 13:00 61% -
Do, 05.12. 7:00 92% 30 km
Do, 05.12. 1:00 87% 28 km
Mi, 04.12. 19:00 79% 29 km
Mi, 04.12. 13:00 49% 40 km
Ortszeit Relative Feuchte Sichtweite
Fr, 06.12. 10:30 84% 10 km
Fr, 06.12. 10:20 84% -
Fr, 06.12. 10:10 84% -
Fr, 06.12. 10:00 86% 9 km
Fr, 06.12. 9:50 86% -
Fr, 06.12. 9:40 88% -
Fr, 06.12. 9:30 90% 5.0 km
Fr, 06.12. 9:00 92% 5.0 km
Fr, 06.12. 8:30 92% 5.0 km
Fr, 06.12. 8:00 92% 7 km
Fr, 06.12. 7:30 92% 5.0 km
Ortszeit Niederschlagsmenge Niederschlagsart
Fr, 06.12. 7:00 0.1 l/m2 in 12 Std. -
Fr, 06.12. 1:00 0.1 l/m2 in 6 Std. Schnee
Do, 05.12. 19:00 0.0 l/m2 in 12 Std. -
Do, 05.12. 13:00 0.0 l/m2 in 6 Std. -
Do, 05.12. 7:00 0.0 l/m2 in 12 Std. -
Do, 05.12. 1:00 0.0 l/m2 in 6 Std. -
Mi, 04.12. 19:00 0.0 l/m2 in 12 Std. -
Mi, 04.12. 13:00 0.0 l/m2 in 6 Std. -
Ortszeit Niederschlagsmenge Niederschlagsart
Fr, 06.12. 10:30 0.0 l/m2 in 1 Std. -
Fr, 06.12. 10:20 keine Meldung -
Fr, 06.12. 10:10 keine Meldung -
Fr, 06.12. 10:00 0.1 l/m2 in 1 Std. Schnee
Fr, 06.12. 9:50 keine Meldung -
Fr, 06.12. 9:40 keine Meldung -
Fr, 06.12. 9:30 0.1 l/m2 in 1 Std. Schnee
Fr, 06.12. 9:00 0.1 l/m2 in 1 Std. Schnee
Fr, 06.12. 8:30 0.0 l/m2 in 1 Std. -
Fr, 06.12. 8:00 0.0 l/m2 in 1 Std. -
Fr, 06.12. 7:30 0.0 l/m2 in 1 Std. -
Ortszeit Stärke Spitze Richtung
km/h Bft. km/h Grad Sektor
Fr, 06.12. 7:00 6 1 6 100° O
Fr, 06.12. 1:00 2 1 6 90° O
Do, 05.12. 19:00 4 1 11 220° SW
Do, 05.12. 13:00 6 1 11 220° SW
Do, 05.12. 7:00 0 0 7 - -
Do, 05.12. 1:00 2 1 7 100° O
Mi, 04.12. 19:00 4 1 14 130° SO
Mi, 04.12. 13:00 4 1 11 250° W
Ortszeit Stärke Spitze Richtung
km/h Bft. km/h Grad Sektor
Fr, 06.12. 10:30 2 1 4 350° N
Fr, 06.12. 10:20 2 1 - 350° N
Fr, 06.12. 10:10 2 1 - 300° NW
Fr, 06.12. 10:00 0 0 4 - -
Fr, 06.12. 9:50 2 1 - 20° N
Fr, 06.12. 9:40 4 1 - 40° NO
Fr, 06.12. 9:30 2 1 4 90° O
Fr, 06.12. 9:00 4 1 4 240° SW
Fr, 06.12. 8:30 4 1 4 70° O
Fr, 06.12. 8:00 4 1 7 60° NO
Fr, 06.12. 7:30 4 1 7 110° O
Ortszeit Untergrenze Bedeckung Gattung
total tief tief mittel hoch
Fr, 06.12. 7:00 30 m 8/8 8/8 - - -
Fr, 06.12. 1:00 <30 m 8/8 0/8 - - -
Do, 05.12. 19:00 - 0/8 0/8 - - -
Do, 05.12. 13:00 - - - - - -
Do, 05.12. 7:00 - 0/8 0/8 - - -
Do, 05.12. 1:00 10500 m 5/8 0/8 - - -
Mi, 04.12. 19:00 - 0/8 0/8 - - -
Mi, 04.12. 13:00 - 0/8 0/8 - - -
Ortszeit Bedeckungsgrad in Achtel und Wolkenuntergrenze
Fr, 06.12. 10:30 1(90m)
Fr, 06.12. 10:20 1(90m) 2(390m)
Fr, 06.12. 10:10 2(90m) 2(390m)
Fr, 06.12. 10:00 3(60m) 5(210m) 6(360m)
Fr, 06.12. 9:50 3(60m) 5(210m)
Fr, 06.12. 9:40 9 9 9
Fr, 06.12. 9:30 8(60m)
Fr, 06.12. 9:00 8(60m)
Fr, 06.12. 8:30 8(60m)
Fr, 06.12. 8:00 8(60m)
Fr, 06.12. 7:30 8(30m)
Ortszeit Luftdruck NN (hPa) Tendenz (hPa in 3 Std.)
Fr, 06.12. 7:00 1026 + 0,4
Fr, 06.12. 1:00 1026 - 0,8
Do, 05.12. 19:00 1026 + 0,8
Do, 05.12. 13:00 1024 - 0,8
Do, 05.12. 7:00 1026 + 0,9
Do, 05.12. 1:00 1024 - 0,1
Mi, 04.12. 19:00 1024 + 0,4
Mi, 04.12. 13:00 1023 - 1,8
Ortszeit Luftdruck NN (hPa) Tendenz (hPa in 3 Std.)
Fr, 06.12. 10:30 1025 0,0
Fr, 06.12. 10:20 1025 keine Meldung
Fr, 06.12. 10:10 1025 keine Meldung
Fr, 06.12. 10:00 1026 + 0,1
Fr, 06.12. 9:50 1026 keine Meldung
Fr, 06.12. 9:40 1026 keine Meldung
Fr, 06.12. 9:30 1026 + 0,1
Fr, 06.12. 9:00 1026 + 0,5
Fr, 06.12. 8:30 1026 + 0,5
Fr, 06.12. 8:00 1025 + 0,2
Fr, 06.12. 7:30 1025 + 0,2
Ortszeit Schneehöhe (cm)
Fr, 06.12. 7:00 0
Fr, 06.12. 1:00 0
Do, 05.12. 19:00 0
Do, 05.12. 13:00 0
Do, 05.12. 7:00 0
Do, 05.12. 1:00 0
Mi, 04.12. 19:00 0
Mi, 04.12. 13:00 0
Ortszeit Schneehöhe (cm)
Fr, 06.12. 10:30 0
Fr, 06.12. 10:20 0
Fr, 06.12. 10:10 0
Fr, 06.12. 10:00 0
Fr, 06.12. 9:50 0
Fr, 06.12. 9:40 0
Fr, 06.12. 9:30 0
Fr, 06.12. 9:00 0
Fr, 06.12. 8:30 0
Fr, 06.12. 8:00 0
Fr, 06.12. 7:30 0
Link zu dieser Seite / Seite empfehlen

Das Wetter in ...